Main page
METAR-TAF:

METAR-TAF

Airports :

Hamid Karzai International Airport

Kabul, Afghanistan

latitude: 34-38N, longitude: 069-12E, elevation: 1789 m

Current weather observation

The report was made 23 minutes ago, at 20:50 UTC
Wind 5 kt from the North/Northwest
Temperature 3°C
Humidity 70%
Pressure 1025 hPa
Visibility: 8000 m

METAR: OAKB 202050Z 33005KT 8000 NSC 03/M02 Q1025 RMK A3026 BLU BLU

Time: 01:43 (21:13 UTC)

Forecast

The report was made 4 hours and 8 minutes ago, at 17:05 UTC
Forecast valid from 20 at 18 UTC to 21 at 18 UTC
Wind 2 kt from variable directions
Visibility 10 km or more
Scattered clouds at a height of 12000 ft
Temporary
from 20 at 18 UTC to 20 at 20 UTC
Visibility: 5000 m
smoke
Temporary
from 21 at 02 UTC to 21 at 05 UTC
Visibility: 5000 m
haze
Probability 30%
from 21 at 14 UTC to 21 at 18 UTC
Visibility: 5000 m
smoke

TAF: OAKB 201705Z 2018/2118 VRB02KT 9999 SCT120 TEMPO 2018/2020 5000 FU TEMPO 2102/2105 5000 HZ PROB30 2114/2118 5000 FU

Weather observations and forecasts of more than 4000 airports (METAR and TAF reports).

The available stations are represented by yellow and red dots on the map.

Hover mouse over dot to see the name of the station.

Then click to see weather observations and forecasts.

To change the map : click on the green buttons with a black cross to zoom in, on the green button with a dash to zoom out, or on the green arrows for adjacent maps.


METAR-TAF: